Terminal Aerodrome Forecast
Issued by NWS

Home | Current Version | Previous Version | Text Only | Print | Product List | Glossary On
Versions: 1 2 3 4 5 6 7 8 9 10 11 12 13 14 15 16 17 18 19 20
000
FTUS41 KRNK 301139
TAFLWB
TAF
KLWB 301139Z 3012/3112 00000KT P6SM SCT050
      TEMPO 3012/3013 4SM BR SCT002
     FM301500 31003KT P6SM BKN050
     FM310000 00000KT P6SM BKN250=

USA.gov is the U.S. government's official web portal to all federal, state and local government web resources and services.